Time;durP1;ratioP1;P1;durP2;ratioP2;P2;SDS_P1;SDS_P2;PMS_P1;PMS_P2;Temp;Humidity;BMP_temperature;BMP_pressure;BME280_temperature;BME280_humidity;BME280_pressure;Samples;Min_cycle;Max_cycle;Signal;HPM_P1;HPM_P2
2021/10/26 00:01:00;;;;;;;3.35;1.90;;;18.30;64.80;;;;;;5053496;28;20163;-63
2021/10/26 00:03:26;;;;;;;2.10;1.90;;;18.30;64.70;;;;;;5052619;28;20257;-63
2021/10/26 00:05:51;;;;;;;2.00;1.80;;;18.20;64.60;;;;;;5053103;28;20645;-62
2021/10/26 00:08:17;;;;;;;2.17;1.98;;;18.20;64.60;;;;;;5053251;28;20249;-62
2021/10/26 00:10:42;;;;;;;1.70;1.60;;;18.20;64.60;;;;;;5052167;28;20998;-63
2021/10/26 00:13:08;;;;;;;2.30;2.10;;;18.20;64.60;;;;;;5053096;28;20171;-65
2021/10/26 00:15:33;;;;;;;2.10;1.90;;;18.20;64.60;;;;;;5052948;28;20178;-63
2021/10/26 00:17:59;;;;;;;2.20;2.00;;;18.20;64.70;;;;;;5052436;28;20200;-63
2021/10/26 00:20:25;;;;;;;2.10;1.88;;;18.20;64.70;;;;;;5053068;28;20189;-62
2021/10/26 00:22:50;;;;;;;2.53;1.95;;;18.20;64.70;;;;;;5052741;28;20525;-63
2021/10/26 00:25:16;;;;;;;1.90;1.80;;;18.20;64.80;;;;;;5052373;28;20176;-63
2021/10/26 00:27:41;;;;;;;2.05;1.85;;;18.20;64.70;;;;;;5052882;28;20171;-63
2021/10/26 00:30:07;;;;;;;2.33;2.13;;;18.20;64.70;;;;;;5052904;28;20604;-63
2021/10/26 00:32:33;;;;;;;1.90;1.80;;;18.20;64.80;;;;;;5052007;28;20175;-63
2021/10/26 00:34:58;;;;;;;1.85;1.75;;;18.20;64.70;;;;;;5052858;28;20176;-63
2021/10/26 00:37:24;;;;;;;2.10;1.80;;;18.20;64.80;;;;;;5052709;28;20182;-64
2021/10/26 00:39:49;;;;;;;1.67;1.58;;;18.10;64.70;;;;;;5051630;28;20549;-63
2021/10/26 00:42:16;;;;;;;2.10;2.00;;;18.20;64.80;;;;;;5052943;28;20171;-63
2021/10/26 00:44:41;;;;;;;3.13;2.00;;;18.10;64.70;;;;;;5051644;28;20308;-63
2021/10/26 00:47:07;;;;;;;2.10;1.90;;;18.20;64.80;;;;;;5052813;28;20167;-63
2021/10/26 00:49:33;;;;;;;2.22;2.03;;;18.10;64.70;;;;;;5052447;28;20279;-63
2021/10/26 00:51:59;;;;;;;2.20;2.00;;;18.10;64.70;;;;;;5051631;28;20258;-64
2021/10/26 00:54:24;;;;;;;2.83;2.22;;;18.10;64.80;;;;;;5052678;28;20185;-64
2021/10/26 00:56:50;;;;;;;1.80;1.70;;;18.10;64.70;;;;;;5052525;28;20662;-64
2021/10/26 00:59:16;;;;;;;2.10;1.92;;;18.10;64.80;;;;;;5051957;28;20210;-65
2021/10/26 01:01:41;;;;;;;2.33;1.95;;;18.10;64.70;;;;;;5052273;28;20676;-62
2021/10/26 01:04:07;;;;;;;2.45;2.00;;;18.10;64.80;;;;;;5052654;28;20175;-62
2021/10/26 01:06:33;;;;;;;2.20;1.80;;;18.00;64.80;;;;;;5051447;28;20266;-62
2021/10/26 01:08:59;;;;;;;1.92;1.83;;;18.10;64.80;;;;;;5035061;28;20198;-62
2021/10/26 01:11:24;;;;;;;2.33;1.98;;;18.10;64.80;;;;;;5052708;28;20187;-64
2021/10/26 01:13:50;;;;;;;2.42;1.70;;;18.10;65.70;;;;;;5050355;28;20638;-63
2021/10/26 01:16:15;;;;;;;2.30;2.10;;;18.10;64.80;;;;;;5034742;28;20216;-64
2021/10/26 01:18:41;;;;;;;2.22;1.83;;;18.00;64.80;;;;;;5052299;28;20207;-64
2021/10/26 01:21:06;;;;;;;1.77;1.67;;;18.00;64.80;;;;;;5051642;28;20171;-62
2021/10/26 01:23:32;;;;;;;2.17;1.98;;;18.10;64.90;;;;;;5052005;28;20254;-63
2021/10/26 01:25:58;;;;;;;1.90;1.80;;;18.00;64.80;;;;;;5052544;28;20190;-62
2021/10/26 01:28:24;;;;;;;2.10;1.90;;;18.00;64.80;;;;;;5051700;28;20175;-62
2021/10/26 01:30:49;;;;;;;2.33;2.13;;;18.00;64.80;;;;;;5052245;28;20182;-63
2021/10/26 01:33:15;;;;;;;1.88;1.77;;;18.00;64.80;;;;;;5052528;28;20175;-63
2021/10/26 01:35:41;;;;;;;2.33;1.92;;;18.00;64.80;;;;;;5051214;28;20179;-63
2021/10/26 01:38:07;;;;;;;2.83;2.30;;;18.00;64.80;;;;;;5052176;28;20552;-63
2021/10/26 01:40:33;;;;;;;2.33;2.13;;;18.00;65.70;;;;;;5052149;28;20175;-61
2021/10/26 01:42:58;;;;;;;2.08;1.85;;;18.00;64.80;;;;;;5051508;28;20314;-63
2021/10/26 01:45:24;;;;;;;2.60;2.00;;;18.00;64.80;;;;;;5052281;28;20638;-64
2021/10/26 01:47:49;;;;;;;2.38;2.17;;;18.00;64.80;;;;;;5051980;28;20171;-63
2021/10/26 01:50:16;;;;;;;2.50;2.30;;;18.00;64.90;;;;;;5051611;28;20186;-63
2021/10/26 01:52:41;;;;;;;2.15;1.95;;;18.00;64.90;;;;;;5052006;28;20529;-64
2021/10/26 01:55:08;;;;;;;2.60;1.92;;;18.00;64.80;;;;;;5051576;28;20627;-64
2021/10/26 01:57:33;;;;;;;2.28;2.08;;;18.00;64.90;;;;;;5051769;28;20542;-64
2021/10/26 01:59:59;;;;;;;2.25;1.70;;;18.00;64.80;;;;;;5051981;28;20215;-64
2021/10/26 02:02:25;;;;;;;2.25;2.05;;;18.00;64.90;;;;;;5051242;28;20186;-63
2021/10/26 02:04:51;;;;;;;2.20;2.00;;;17.90;64.80;;;;;;5053909;28;20175;-62
2021/10/26 02:07:16;;;;;;;2.33;2.10;;;18.00;64.90;;;;;;5055364;28;20206;-62
2021/10/26 02:09:42;;;;;;;3.90;2.17;;;17.90;64.90;;;;;;5054712;28;20250;-62
2021/10/26 02:12:08;;;;;;;2.40;2.20;;;17.90;64.80;;;;;;5055680;28;20171;-63
2021/10/26 02:14:33;;;;;;;2.10;1.90;;;17.90;64.80;;;;;;5055222;28;20179;-64
2021/10/26 02:16:59;;;;;;;2.45;2.25;;;17.90;64.80;;;;;;5054607;28;20175;-63
2021/10/26 02:19:24;;;;;;;2.45;2.25;;;17.90;64.90;;;;;;5055193;28;20238;-64
2021/10/26 02:21:50;;;;;;;2.25;2.00;;;17.90;64.90;;;;;;5054988;28;20172;-63
2021/10/26 02:24:16;;;;;;;3.78;2.58;;;17.90;64.90;;;;;;5054545;28;20171;-64
2021/10/26 02:26:41;;;;;;;2.30;2.10;;;17.90;64.90;;;;;;5055070;28;20531;-64
2021/10/26 02:29:07;;;;;;;2.30;2.10;;;17.90;64.90;;;;;;5055384;28;20175;-64
2021/10/26 02:31:32;;;;;;;3.05;2.10;;;17.90;64.90;;;;;;5054129;28;20209;-65
2021/10/26 02:33:58;;;;;;;2.80;2.50;;;17.90;64.90;;;;;;5054941;28;20179;-64
2021/10/26 02:36:23;;;;;;;2.30;2.10;;;17.90;64.90;;;;;;5055039;28;20607;-63
2021/10/26 02:38:49;;;;;;;2.95;2.70;;;17.90;64.90;;;;;;5054088;28;20210;-63
2021/10/26 02:41:14;;;;;;;2.30;2.10;;;17.90;64.90;;;;;;5055193;28;20182;-64
2021/10/26 02:43:40;;;;;;;3.53;2.80;;;17.90;64.90;;;;;;5054644;28;20218;-64
2021/10/26 02:46:06;;;;;;;2.67;2.42;;;17.90;64.90;;;;;;5054268;28;20175;-63
2021/10/26 02:48:32;;;;;;;2.83;2.63;;;17.90;64.90;;;;;;5054735;28;20171;-63
2021/10/26 02:50:57;;;;;;;2.38;2.17;;;17.90;64.90;;;;;;5054693;28;20573;-64
2021/10/26 02:53:23;;;;;;;2.33;2.22;;;17.90;65.00;;;;;;5054099;28;20179;-65
2021/10/26 02:55:49;;;;;;;2.60;2.40;;;17.90;64.90;;;;;;5054412;28;20619;-64
2021/10/26 02:58:14;;;;;;;2.38;2.17;;;17.90;64.90;;;;;;5053950;28;20199;-64
2021/10/26 03:00:40;;;;;;;2.33;2.13;;;17.80;64.90;;;;;;5054444;28;20171;-63
2021/10/26 03:03:05;;;;;;;2.70;2.50;;;17.80;64.80;;;;;;5054534;28;20178;-63
2021/10/26 03:05:31;;;;;;;2.42;2.22;;;17.80;64.80;;;;;;5053319;28;20181;-62
2021/10/26 03:07:59;;;;;;;2.63;2.42;;;17.80;64.90;;;;;;5054689;28;20587;-63
2021/10/26 03:10:24;;;;;;;2.67;2.47;;;17.90;65.00;;;;;;5054576;28;20271;-63
2021/10/26 03:12:50;;;;;;;2.65;2.42;;;17.80;64.90;;;;;;5053410;28;20262;-64
2021/10/26 03:15:16;;;;;;;2.38;2.17;;;17.80;64.80;;;;;;5054238;28;20178;-64
2021/10/26 03:17:41;;;;;;;2.45;2.25;;;17.80;64.90;;;;;;5054141;28;20175;-63
2021/10/26 03:20:07;;;;;;;3.35;2.70;;;17.80;64.80;;;;;;5053333;28;20211;-63
2021/10/26 03:22:33;;;;;;;2.60;2.40;;;17.80;64.90;;;;;;5053844;28;20720;-63
2021/10/26 03:24:58;;;;;;;2.75;2.53;;;17.80;64.90;;;;;;5054110;28;20262;-62
2021/10/26 03:27:26;;;;;;;3.10;2.40;;;17.80;64.90;;;;;;5053388;28;20167;-64
2021/10/26 03:29:52;;;;;;;4.72;2.90;;;17.80;64.90;;;;;;5053826;28;20186;-63
2021/10/26 03:32:17;;;;;;;2.47;2.28;;;17.80;64.90;;;;;;5054172;28;20619;-63
2021/10/26 03:34:43;;;;;;;2.70;2.47;;;17.80;65.80;;;;;;5052995;28;20206;-62
2021/10/26 03:37:08;;;;;;;2.80;2.60;;;17.80;64.90;;;;;;5054044;28;20644;-62
2021/10/26 03:39:34;;;;;;;2.80;2.60;;;17.80;64.90;;;;;;5053665;28;20215;-62
2021/10/26 03:41:59;;;;;;;2.53;2.33;;;17.80;64.90;;;;;;5053251;28;20622;-63
2021/10/26 03:44:25;;;;;;;3.05;2.67;;;17.80;64.90;;;;;;5053438;28;20242;-63
2021/10/26 03:46:51;;;;;;;2.90;2.50;;;17.80;64.90;;;;;;5053474;28;20233;-62
2021/10/26 03:49:16;;;;;;;3.88;2.70;;;17.80;64.90;;;;;;5052849;28;20186;-63
2021/10/26 03:51:42;;;;;;;2.70;2.50;;;17.70;64.90;;;;;;5053433;28;20178;-63
2021/10/26 03:54:07;;;;;;;3.22;2.92;;;17.70;64.90;;;;;;5053729;28;20171;-63
2021/10/26 03:56:33;;;;;;;3.55;2.80;;;17.70;64.90;;;;;;5052567;28;20553;-63
2021/10/26 03:59:00;;;;;;;2.47;2.28;;;17.70;64.90;;;;;;5053416;28;20207;-63
2021/10/26 04:01:26;;;;;;;2.90;2.70;;;17.70;64.90;;;;;;5054033;28;20182;-64
2021/10/26 04:03:51;;;;;;;2.60;2.40;;;17.70;64.90;;;;;;5052302;28;20171;-62
2021/10/26 04:06:20;;;;;;;3.40;3.10;;;17.70;64.90;;;;;;5053493;28;20194;-63
2021/10/26 04:11:19;;;;;;;3.40;3.10;;;17.70;64.90;;;;;;5053429;28;20588;-64
2021/10/26 04:13:44;;;;;;;3.05;2.75;;;17.70;64.90;;;;;;5052824;28;20175;-64
2021/10/26 04:16:10;;;;;;;2.70;2.50;;;17.70;64.90;;;;;;5052204;28;20190;-64
2021/10/26 04:18:35;;;;;;;3.15;2.85;;;17.70;64.90;;;;;;5052573;28;20206;-64
2021/10/26 04:21:01;;;;;;;3.75;3.30;;;17.70;64.90;;;;;;5053151;28;20302;-64
2021/10/26 04:23:28;;;;;;;2.90;2.70;;;17.70;64.90;;;;;;5052399;28;20171;-64
2021/10/26 04:25:54;;;;;;;2.78;2.58;;;17.70;64.90;;;;;;5053061;28;20241;-63
2021/10/26 04:28:19;;;;;;;3.17;2.88;;;17.70;64.90;;;;;;5052326;28;20174;-64
2021/10/26 04:30:45;;;;;;;3.08;2.80;;;17.70;64.90;;;;;;5052006;28;20656;-63
2021/10/26 04:33:11;;;;;;;2.78;2.58;;;17.70;64.90;;;;;;5052869;28;20183;-63
2021/10/26 04:35:37;;;;;;;3.28;2.97;;;17.70;64.90;;;;;;5052738;28;20190;-62
2021/10/26 04:38:03;;;;;;;3.28;3.08;;;17.70;64.90;;;;;;5052093;28;20740;-62
2021/10/26 04:40:28;;;;;;;3.20;2.90;;;17.70;65.80;;;;;;5052708;28;20209;-62
2021/10/26 04:42:54;;;;;;;2.95;2.75;;;17.70;65.00;;;;;;5052534;28;20227;-63
2021/10/26 04:45:21;;;;;;;3.60;3.30;;;17.70;65.00;;;;;;5052082;28;20172;-63
2021/10/26 04:47:46;;;;;;;3.45;3.15;;;17.70;64.90;;;;;;5052506;28;20182;-62
2021/10/26 04:50:12;;;;;;;3.22;2.90;;;17.70;64.90;;;;;;5052932;28;20192;-62
2021/10/26 04:52:38;;;;;;;3.13;2.83;;;17.70;64.90;;;;;;5051904;28;20191;-63
2021/10/26 04:55:04;;;;;;;3.75;2.90;;;17.70;64.90;;;;;;5052744;28;20611;-63
2021/10/26 04:57:30;;;;;;;3.22;2.90;;;17.60;64.90;;;;;;5052501;28;20685;-64
2021/10/26 04:59:56;;;;;;;3.47;3.17;;;17.60;65.00;;;;;;5051795;28;20211;-63
2021/10/26 05:02:22;;;;;;;3.97;3.28;;;17.60;64.90;;;;;;5052580;28;20182;-62
2021/10/26 05:04:47;;;;;;;3.78;3.47;;;17.60;64.90;;;;;;5052176;28;20182;-62
2021/10/26 05:07:14;;;;;;;3.55;3.25;;;17.60;64.90;;;;;;5051972;28;20544;-61
2021/10/26 05:09:39;;;;;;;3.60;3.30;;;17.60;64.90;;;;;;5052396;28;20179;-62
2021/10/26 05:12:05;;;;;;;3.05;2.85;;;17.60;64.90;;;;;;5051731;28;20180;-62
2021/10/26 05:14:31;;;;;;;3.28;3.03;;;17.60;64.90;;;;;;5052237;28;20190;-64
2021/10/26 05:16:57;;;;;;;3.58;3.28;;;17.60;64.90;;;;;;5052581;28;20179;-63
2021/10/26 05:19:24;;;;;;;3.53;3.22;;;17.60;64.90;;;;;;5051729;28;20299;-63
2021/10/26 05:21:49;;;;;;;3.90;3.60;;;17.60;64.90;;;;;;5052127;28;20563;-62
2021/10/26 05:24:15;;;;;;;3.90;3.45;;;17.60;64.90;;;;;;5052537;28;20183;-63
2021/10/26 05:26:41;;;;;;;3.95;3.55;;;17.60;64.90;;;;;;5051470;28;20571;-63
2021/10/26 05:29:10;;;;;;;3.50;3.20;;;17.60;64.90;;;;;;5051219;28;20186;-63
2021/10/26 05:31:36;;;;;;;3.28;3.00;;;17.60;65.00;;;;;;5051979;28;20626;-62
2021/10/26 05:34:01;;;;;;;3.70;3.40;;;17.60;65.00;;;;;;5051697;28;20183;-61
2021/10/26 05:36:27;;;;;;;4.20;3.90;;;17.60;64.90;;;;;;5051057;28;20178;-62
2021/10/26 05:38:52;;;;;;;3.80;3.50;;;17.60;64.90;;;;;;5054077;28;20724;-61
2021/10/26 05:41:18;;;;;;;3.97;3.63;;;17.60;64.90;;;;;;5055522;28;20179;-62
2021/10/26 05:43:43;;;;;;;4.00;3.70;;;17.60;64.90;;;;;;5054312;28;20233;-62
2021/10/26 05:46:09;;;;;;;3.63;3.38;;;17.60;65.00;;;;;;5056093;28;20174;-62
2021/10/26 05:48:34;;;;;;;4.50;4.10;;;17.60;65.00;;;;;;5055139;28;20171;-61
2021/10/26 05:51:04;;;;;;;3.83;3.40;;;17.50;64.90;;;;;;5056006;28;20539;-62
2021/10/26 05:53:29;;;;;;;4.00;3.70;;;17.50;64.90;;;;;;5055674;28;20533;-63
2021/10/26 05:55:55;;;;;;;4.22;3.83;;;17.50;64.90;;;;;;5055361;28;20186;-62
2021/10/26 05:58:21;;;;;;;3.92;3.40;;;17.60;65.00;;;;;;5055558;28;20203;-63
2021/10/26 06:00:46;;;;;;;4.18;3.78;;;17.60;65.00;;;;;;5055655;28;20278;-62
2021/10/26 06:03:12;;;;;;;4.20;3.67;;;17.60;65.00;;;;;;5054485;28;20190;-62
2021/10/26 06:05:38;;;;;;;4.05;3.75;;;17.50;65.00;;;;;;5055481;28;20187;-62
2021/10/26 06:08:05;;;;;;;4.20;3.80;;;17.50;65.00;;;;;;5055800;28;20183;-61
2021/10/26 06:10:32;;;;;;;3.95;3.65;;;17.50;65.00;;;;;;5054870;28;20266;-63
2021/10/26 06:13:03;;;;;;;4.25;3.95;;;17.50;65.00;;;;;;5055618;28;20654;-65
2021/10/26 06:15:29;;;;;;;3.97;3.67;;;17.50;65.00;;;;;;5054630;28;20183;-64
2021/10/26 06:17:54;;;;;;;4.10;3.80;;;18.00;65.30;;;;;;5055288;28;20179;-64
2021/10/26 06:20:20;;;;;;;3.90;3.60;;;17.50;65.00;;;;;;5055334;28;20681;-63
2021/10/26 06:22:45;;;;;;;3.88;3.47;;;17.50;65.10;;;;;;5054477;28;20201;-63
2021/10/26 06:25:11;;;;;;;4.00;3.70;;;17.50;65.00;;;;;;5055210;28;20179;-65
2021/10/26 06:27:37;;;;;;;4.05;3.72;;;17.50;65.00;;;;;;5054760;28;20171;-62
2021/10/26 06:30:02;;;;;;;4.03;3.72;;;17.50;65.00;;;;;;5054633;28;20186;-64
2021/10/26 06:32:28;;;;;;;4.25;3.92;;;17.50;65.00;;;;;;5055436;28;20228;-63
2021/10/26 06:34:53;;;;;;;4.22;3.83;;;17.50;65.10;;;;;;5055304;28;20536;-62
2021/10/26 06:37:20;;;;;;;4.43;4.03;;;17.50;65.00;;;;;;5054474;28;20266;-63
2021/10/26 06:39:45;;;;;;;4.00;3.70;;;17.50;65.00;;;;;;5054867;28;20261;-61
2021/10/26 06:42:11;;;;;;;4.05;3.70;;;17.50;65.00;;;;;;5055104;28;20171;-62
2021/10/26 06:44:36;;;;;;;4.10;3.80;;;17.50;64.90;;;;;;5053677;28;20268;-62
2021/10/26 06:47:03;;;;;;;4.28;3.88;;;17.50;65.00;;;;;;5054962;28;20199;-63
2021/10/26 06:49:29;;;;;;;4.20;3.90;;;17.50;65.00;;;;;;5053856;28;20619;-62
2021/10/26 06:51:55;;;;;;;3.90;3.60;;;17.60;64.90;;;;;;5054257;28;20186;-63
2021/10/26 06:54:21;;;;;;;3.78;3.47;;;17.60;64.90;;;;;;5054720;28;20163;-63
2021/10/26 06:56:46;;;;;;;4.63;4.30;;;17.60;64.80;;;;;;5054118;28;20549;-63
2021/10/26 06:59:12;;;;;;;4.55;3.97;;;17.60;64.90;;;;;;5054057;28;20661;-64
2021/10/26 07:01:37;;;;;;;3.97;3.67;;;17.60;64.90;;;;;;5054471;28;20225;-63
2021/10/26 07:04:03;;;;;;;3.90;3.60;;;17.60;64.90;;;;;;5054432;28;20214;-66
2021/10/26 07:06:29;;;;;;;4.38;4.07;;;17.60;64.90;;;;;;5053705;28;20607;-76
2021/10/26 07:08:54;;;;;;;3.90;3.60;;;17.60;65.00;;;;;;5054378;28;20175;-77
2021/10/26 07:11:20;;;;;;;4.80;4.00;;;17.60;65.00;;;;;;5054212;28;20181;-63
2021/10/26 07:13:45;;;;;;;5.82;4.05;;;17.60;65.10;;;;;;5053462;28;20178;-63
2021/10/26 07:16:14;;;;;;;5.32;4.20;;;17.60;65.30;;;;;;5054355;28;20564;-63
2021/10/26 07:18:39;;;;;;;6.47;3.88;;;17.60;65.30;;;;;;5053474;28;20210;-73
2021/10/26 07:21:05;;;;;;;6.20;4.20;;;17.60;65.80;;;;;;5054026;28;20576;-72
2021/10/26 07:23:31;;;;;;;4.55;4.15;;;17.60;65.50;;;;;;5053791;28;20171;-73
2021/10/26 07:25:57;;;;;;;7.53;4.32;;;17.60;65.50;;;;;;5053279;28;20273;-72
2021/10/26 07:28:22;;;;;;;4.75;4.25;;;17.60;65.50;;;;;;5053928;28;20674;-72
2021/10/26 07:30:48;;;;;;;5.38;4.38;;;17.60;65.50;;;;;;5053895;28;20634;-74
2021/10/26 07:33:21;;;;;;;5.88;4.28;;;17.60;65.40;;;;;;5053375;28;20189;-75
2021/10/26 07:35:48;;;;;;;12.68;5.10;;;17.50;65.50;;;;;;5053729;28;20171;-76
2021/10/26 07:38:24;;;;;;;5.05;4.55;;;17.50;65.40;;;;;;5053891;28;20183;-75
2021/10/26 07:40:49;;;;;;;5.70;4.50;;;17.50;65.40;;;;;;5053155;28;20187;-76
2021/10/26 07:43:15;;;;;;;5.13;4.70;;;17.50;65.50;;;;;;5053589;28;20313;-73
2021/10/26 07:45:40;;;;;;;6.53;4.93;;;17.50;65.40;;;;;;5053242;28;20175;-75
2021/10/26 07:48:06;;;;;;;5.45;4.22;;;17.50;65.50;;;;;;5052790;28;20634;-72
2021/10/26 07:50:31;;;;;;;5.95;5.25;;;17.50;65.40;;;;;;5053363;28;20171;-74
2021/10/26 07:52:57;;;;;;;6.10;5.50;;;17.50;65.40;;;;;;5053236;28;20179;-75
2021/10/26 07:55:23;;;;;;;7.22;5.35;;;17.50;65.40;;;;;;5052996;28;20178;-74
2021/10/26 07:57:48;;;;;;;5.55;4.90;;;17.50;65.40;;;;;;5053505;28;20199;-75
2021/10/26 08:00:14;;;;;;;5.75;5.15;;;17.50;65.40;;;;;;5053417;28;20222;-74
2021/10/26 08:02:40;;;;;;;5.68;5.18;;;17.50;65.40;;;;;;5051594;28;20649;-76
2021/10/26 08:05:06;;;;;;;5.55;4.97;;;17.50;65.40;;;;;;5053316;28;20270;-74
2021/10/26 08:07:31;;;;;;;5.68;4.80;;;17.50;65.40;;;;;;5052874;28;20178;-65
2021/10/26 08:09:57;;;;;;;6.82;5.18;;;17.50;65.50;;;;;;5052778;28;20175;-70
2021/10/26 08:12:24;;;;;;;6.70;5.05;;;17.50;65.70;;;;;;5053380;28;20171;-68
2021/10/26 08:14:50;;;;;;;7.40;5.05;;;17.50;65.70;;;;;;5052398;28;20179;-68
2021/10/26 08:17:15;;;;;;;6.80;4.93;;;17.50;65.80;;;;;;5053178;28;20668;-67
2021/10/26 08:19:42;;;;;;;9.48;6.53;;;17.60;65.90;;;;;;5052626;28;20203;-73
2021/10/26 08:22:12;;;;;;;6.63;5.20;;;17.60;65.70;;;;;;5052245;28;20179;-72
2021/10/26 08:24:38;;;;;;;5.93;5.20;;;17.60;65.70;;;;;;5052549;28;20618;-71
2021/10/26 08:27:08;;;;;;;7.07;5.85;;;17.60;65.60;;;;;;5053033;28;20183;-73
2021/10/26 08:29:43;;;;;;;6.82;6.13;;;17.60;65.40;;;;;;5051991;28;20171;-73
2021/10/26 08:34:50;;;;;;;6.90;5.40;;;17.60;65.40;;;;;;5052581;28;20262;-76
2021/10/26 08:37:17;;;;;;;6.30;5.50;;;17.70;65.50;;;;;;5054638;28;20180;-76
2021/10/26 08:39:46;;;;;;;6.20;5.25;;;17.70;65.50;;;;;;5054964;28;20264;-77
2021/10/26 08:42:18;;;;;;;7.70;6.15;;;17.70;65.70;;;;;;5052059;28;20548;-76
2021/10/26 08:44:43;;;;;;;9.45;5.60;;;17.70;65.50;;;;;;5060272;28;20340;-76
2021/10/26 08:47:10;;;;;;;6.53;5.82;;;17.60;65.50;;;;;;5063689;28;20170;-77
2021/10/26 08:49:35;;;;;;;7.03;6.05;;;17.70;65.50;;;;;;5071195;28;20182;-77
2021/10/26 08:52:04;;;;;;;7.88;6.40;;;17.70;65.50;;;;;;5053512;28;20571;-77
2021/10/26 08:54:30;;;;;;;6.57;5.70;;;17.70;65.40;;;;;;5052583;28;20239;-77
2021/10/26 08:56:56;;;;;;;6.40;5.35;;;17.70;65.50;;;;;;5051866;28;20282;-77
2021/10/26 08:59:21;;;;;;;6.80;5.25;;;17.60;65.50;;;;;;5052645;28;20199;-76
2021/10/26 09:01:51;;;;;;;9.40;5.93;;;17.70;65.50;;;;;;5052366;28;20167;-78
2021/10/26 09:04:17;;;;;;;7.18;5.40;;;17.60;65.50;;;;;;5052396;28;20312;-77
2021/10/26 09:06:52;;;;;;;9.57;6.03;;;17.60;65.40;;;;;;5052387;28;20258;-79
2021/10/26 09:09:21;;;;;;;7.43;5.50;;;17.60;65.50;;;;;;5052531;28;20179;-69
2021/10/26 09:16:40;;;;;;;6.28;5.57;;;17.60;65.40;;;;;;5051299;28;20206;-72
2021/10/26 09:17:27;;;;;;;8.68;5.72;;;17.70;65.40;;;;;;5070313;28;20321;-70
2021/10/26 09:20:00;;;;;;;6.70;6.00;;;17.70;65.40;;;;;;5073892;28;20602;-74
2021/10/26 09:22:27;;;;;;;7.78;5.63;;;17.70;65.30;;;;;;5076258;28;20170;-71
2021/10/26 09:25:00;;;;;;;8.93;6.07;;;17.70;65.30;;;;;;5065923;28;20210;-71
2021/10/26 09:27:26;;;;;;;7.45;5.68;;;17.70;65.20;;;;;;5055240;28;20241;-70
2021/10/26 09:29:54;;;;;;;8.35;6.90;;;17.70;65.30;;;;;;5055905;28;20182;-75
2021/10/26 09:32:39;;;;;;;7.10;6.10;;;17.70;65.40;;;;;;5056790;28;20179;-74
2021/10/26 09:35:09;;;;;;;6.22;5.57;;;17.70;65.20;;;;;;5056356;28;20183;-75
2021/10/26 09:37:44;;;;;;;6.70;5.88;;;17.70;65.20;;;;;;5056234;28;20220;-74
2021/10/26 09:40:10;;;;;;;6.13;5.53;;;17.80;65.40;;;;;;5055362;28;20309;-75
2021/10/26 09:42:45;;;;;;;7.03;5.82;;;17.80;65.20;;;;;;5055327;28;20258;-76
2021/10/26 09:45:32;;;;;;;7.55;6.80;;;17.90;65.10;;;;;;5056123;28;20179;-76
2021/10/26 09:48:14;;;;;;;7.30;5.57;;;17.90;65.10;;;;;;5055495;28;20229;-73
2021/10/26 09:50:40;;;;;;;8.35;5.85;;;17.90;65.20;;;;;;5062765;28;20177;-76
2021/10/26 09:53:07;;;;;;;7.18;5.80;;;17.90;65.40;;;;;;5075958;28;20174;-75
2021/10/26 09:55:44;;;;;;;6.57;5.88;;;17.80;65.40;;;;;;5074911;28;20224;-78
2021/10/26 09:58:15;;;;;;;7.25;6.55;;;17.80;65.50;;;;;;5075867;28;20269;-77
2021/10/26 10:00:44;;;;;;;8.55;6.53;;;17.80;65.60;;;;;;5074715;28;20209;-77
2021/10/26 10:03:11;;;;;;;10.60;6.15;;;17.80;65.60;;;;;;5075497;28;20181;-79
2021/10/26 10:05:40;;;;;;;10.55;5.97;;;17.80;65.70;;;;;;5075670;28;20182;-79
2021/10/26 10:08:19;;;;;;;10.70;6.43;;;17.80;65.80;;;;;;5074703;28;20656;-67
2021/10/26 10:10:44;;;;;;;7.38;5.60;;;17.80;65.90;;;;;;5075208;28;20608;-72
2021/10/26 10:13:10;;;;;;;6.90;6.13;;;17.80;66.30;;;;;;5075519;28;20253;-68
2021/10/26 10:15:36;;;;;;;9.15;5.80;;;17.80;65.90;;;;;;5074617;28;20179;-68
2021/10/26 10:18:03;;;;;;;8.30;5.60;;;17.80;65.80;;;;;;5075546;28;20171;-71
2021/10/26 10:20:29;;;;;;;9.55;6.00;;;17.90;65.90;;;;;;5074988;28;20225;-70
2021/10/26 10:22:55;;;;;;;8.23;5.78;;;17.90;65.90;;;;;;5073309;28;20182;-70
2021/10/26 10:25:20;;;;;;;9.82;6.20;;;17.90;65.90;;;;;;5056605;28;20208;-66
2021/10/26 10:27:47;;;;;;;9.88;6.15;;;17.90;66.70;;;;;;5075093;28;20166;-67
2021/10/26 10:30:13;;;;;;;6.20;5.60;;;17.90;65.90;;;;;;5056830;28;20678;-67
2021/10/26 10:32:40;;;;;;;9.40;6.40;;;17.90;65.70;;;;;;5074857;28;20265;-78
2021/10/26 10:35:12;;;;;;;9.75;4.93;;;17.90;66.10;;;;;;5074961;28;20540;-74
2021/10/26 10:37:37;;;;;;;8.88;5.38;;;17.90;66.00;;;;;;5073967;28;20649;-73
2021/10/26 10:40:04;;;;;;;7.95;5.20;;;17.90;65.90;;;;;;5073642;28;20249;-71
2021/10/26 10:42:30;;;;;;;6.00;5.40;;;17.90;65.80;;;;;;5073906;28;20167;-70
2021/10/26 10:44:57;;;;;;;5.90;4.80;;;17.90;65.70;;;;;;5074865;28;20189;-69
2021/10/26 10:47:42;;;;;;;10.07;5.35;;;17.90;65.80;;;;;;5075057;28;20628;-75
2021/10/26 10:50:19;;;;;;;6.55;5.53;;;17.90;65.90;;;;;;5070932;28;20186;-76
2021/10/26 10:52:45;;;;;;;7.13;5.15;;;17.90;65.90;;;;;;5054392;28;20641;-73
2021/10/26 10:55:22;;;;;;;8.50;5.20;;;17.90;65.80;;;;;;5054653;28;20175;-78
2021/10/26 10:57:48;;;;;;;6.32;5.07;;;17.90;65.80;;;;;;5053623;28;20540;-75
2021/10/26 11:00:18;;;;;;;5.95;4.72;;;17.90;65.80;;;;;;5054401;28;20214;-73
2021/10/26 11:02:46;;;;;;;10.25;5.10;;;17.90;65.80;;;;;;5054058;28;20193;-76
2021/10/26 11:05:33;;;;;;;6.75;5.38;;;17.90;65.80;;;;;;5053994;28;20175;-75
2021/10/26 11:08:03;;;;;;;7.60;4.80;;;17.90;65.80;;;;;;5054264;28;20569;-75
2021/10/26 11:10:48;;;;;;;6.82;4.93;;;18.00;65.70;;;;;;5054128;28;20175;-66
2021/10/26 11:13:21;;;;;;;7.82;5.00;;;17.90;65.70;;;;;;5054165;28;20181;-76
2021/10/26 11:15:48;;;;;;;7.35;4.90;;;17.90;66.00;;;;;;5053930;28;20261;-75
2021/10/26 11:18:32;;;;;;;14.15;5.53;;;18.00;66.00;;;;;;5053286;28;20643;-74
2021/10/26 11:20:58;;;;;;;8.07;5.22;;;17.90;65.80;;;;;;5054275;28;20180;-72
2021/10/26 11:23:35;;;;;;;7.75;4.68;;;17.90;65.80;;;;;;5054195;28;20688;-72
2021/10/26 11:26:05;;;;;;;10.45;5.40;;;18.00;65.90;;;;;;5053285;28;20545;-77
2021/10/26 11:28:31;;;;;;;8.95;5.65;;;17.90;66.00;;;;;;5053774;28;20658;-72
2021/10/26 11:30:59;;;;;;;12.43;5.28;;;17.90;66.10;;;;;;5054099;28;20178;-75
2021/10/26 11:33:29;;;;;;;11.15;4.93;;;18.00;66.00;;;;;;5053285;28;20175;-76
2021/10/26 11:35:56;;;;;;;8.20;5.05;;;18.00;65.90;;;;;;5053956;28;20214;-66
2021/10/26 11:38:44;;;;;;;7.95;5.60;;;17.90;65.90;;;;;;5054036;28;20254;-75
2021/10/26 11:41:14;;;;;;;13.82;5.22;;;17.90;66.00;;;;;;5054068;28;20266;-72
2021/10/26 11:43:41;;;;;;;11.57;5.00;;;17.90;66.00;;;;;;5053276;28;20693;-75
2021/10/26 11:46:17;;;;;;;8.75;4.90;;;17.90;65.80;;;;;;5053074;28;20206;-74
2021/10/26 11:48:49;;;;;;;9.07;4.95;;;17.90;65.80;;;;;;5053613;28;20215;-74
2021/10/26 11:51:28;;;;;;;6.28;4.65;;;17.90;65.80;;;;;;5065772;28;20227;-73
2021/10/26 11:54:18;;;;;;;6.93;4.75;;;17.90;65.90;;;;;;5072832;28;20185;-74
2021/10/26 11:56:44;;;;;;;7.07;4.88;;;17.90;66.00;;;;;;5062624;28;20183;-76
2021/10/26 11:59:11;;;;;;;7.20;4.53;;;17.90;66.00;;;;;;5073504;28;20238;-71
2021/10/26 12:01:46;;;;;;;5.72;4.03;;;17.90;66.00;;;;;;5072521;28;20170;-75
2021/10/26 12:04:31;;;;;;;7.35;4.95;;;17.90;65.90;;;;;;5073463;28;20540;-75
2021/10/26 12:06:58;;;;;;;6.18;4.28;;;17.90;65.90;;;;;;5072606;28;20612;-75
2021/10/26 12:09:25;;;;;;;6.18;4.68;;;17.90;65.90;;;;;;5073267;28;20183;-72
2021/10/26 12:11:52;;;;;;;6.22;4.90;;;17.90;65.80;;;;;;5073001;28;20185;-73
2021/10/26 12:14:23;;;;;;;6.65;4.38;;;17.90;65.90;;;;;;5072665;28;20637;-71
2021/10/26 12:17:10;;;;;;;7.15;4.47;;;17.90;65.90;;;;;;5072851;28;20186;-72
2021/10/26 12:20:08;;;;;;;5.80;4.15;;;17.90;66.00;;;;;;5072796;28;20217;-73
2021/10/26 12:22:33;;;;;;;7.53;4.85;;;17.90;66.00;;;;;;5066266;28;20265;-73
2021/10/26 12:25:15;;;;;;;6.18;4.40;;;17.90;66.00;;;;;;5073049;28;20270;-72
2021/10/26 12:27:46;;;;;;;6.53;4.50;;;17.90;66.00;;;;;;5072876;28;20182;-73
2021/10/26 12:30:12;;;;;;;5.80;4.60;;;17.80;65.90;;;;;;5072314;28;20315;-73
2021/10/26 12:32:40;;;;;;;4.75;4.35;;;17.90;66.10;;;;;;5072889;28;20645;-76
2021/10/26 12:35:09;;;;;;;5.43;4.22;;;17.80;66.10;;;;;;5072590;28;20251;-75
2021/10/26 12:37:36;;;;;;;4.35;3.92;;;17.80;66.10;;;;;;5072599;28;20186;-76
2021/10/26 12:40:03;;;;;;;4.70;4.20;;;17.80;66.10;;;;;;5071662;28;20210;-75
2021/10/26 12:42:30;;;;;;;4.65;4.18;;;17.90;66.10;;;;;;5070262;28;20186;-71
2021/10/26 12:44:55;;;;;;;6.43;4.20;;;17.90;66.00;;;;;;5073033;28;20194;-74
2021/10/26 12:47:21;;;;;;;6.53;4.63;;;17.80;66.70;;;;;;5072343;28;20174;-71
2021/10/26 12:49:46;;;;;;;7.93;4.40;;;17.80;65.90;;;;;;5071498;28;20579;-74
2021/10/26 12:52:13;;;;;;;4.88;4.05;;;17.80;66.00;;;;;;5052982;28;20217;-74
2021/10/26 12:54:39;;;;;;;9.93;4.57;;;17.80;66.10;;;;;;5052382;28;20261;-74